createdAt,value
2022-10-02T00:02:22.586Z,24
2022-10-02T00:07:45.282Z,23.9
2022-10-02T00:13:27.537Z,23.8
2022-10-02T00:19:05.607Z,23.8
2022-10-02T00:24:43.082Z,23.8
2022-10-02T00:30:04.903Z,23.8
2022-10-02T00:35:27.227Z,23.8
2022-10-02T00:41:04.919Z,23.7
2022-10-02T00:46:40.858Z,23.7
2022-10-02T00:52:17.745Z,23.7
2022-10-02T00:57:39.480Z,23.6
2022-10-02T01:03:15.820Z,23.6
2022-10-02T01:08:38.014Z,23.6
2022-10-02T01:13:59.677Z,23.6
2022-10-02T01:19:36.458Z,23.6
2022-10-02T01:25:13.920Z,23.6
2022-10-02T01:30:36.654Z,23.6
2022-10-02T01:36:12.798Z,23.6
2022-10-02T01:41:49.944Z,23.6
2022-10-02T01:47:12.193Z,23.6
2022-10-02T01:52:49.217Z,23.5
2022-10-02T01:58:26.917Z,23.5
2022-10-02T02:04:05.151Z,23.6
2022-10-02T02:09:42.755Z,23.5
2022-10-02T02:15:04.212Z,23.5
2022-10-02T02:20:42.703Z,23.5
2022-10-02T02:25:48.342Z,23.5
2022-10-02T02:31:26.997Z,23.5
2022-10-02T02:37:03.904Z,23.5
2022-10-02T02:42:42.565Z,23.5
2022-10-02T02:48:20.869Z,23.5
2022-10-02T02:53:58.285Z,23.5
2022-10-02T02:59:41.214Z,23.5
2022-10-02T03:05:19.901Z,23.5
2022-10-02T03:10:57.105Z,23.5
2022-10-02T03:16:34.035Z,23.4
2022-10-02T03:22:11.914Z,23.4
2022-10-02T03:27:51.768Z,23.4
2022-10-02T03:33:54.565Z,23.4
2022-10-02T03:40:01.931Z,23.4
2022-10-02T03:46:03.188Z,23.4
2022-10-02T03:51:27.172Z,23.4
2022-10-02T03:56:49.904Z,23.4
2022-10-02T04:02:10.713Z,23.4
2022-10-02T04:07:51.876Z,23.3
2022-10-02T04:12:59.817Z,23.3
2022-10-02T04:18:05.599Z,23.3
2022-10-02T04:23:11.606Z,23.3
2022-10-02T04:28:19.085Z,23.3
2022-10-02T04:33:25.494Z,23.3
2022-10-02T04:38:15.631Z,23.3
2022-10-02T04:43:43.093Z,23.3
2022-10-02T04:49:20.844Z,23.3
2022-10-02T04:54:56.898Z,23.3
2022-10-02T05:00:19.573Z,23.3
2022-10-02T05:05:59.516Z,23.2
2022-10-02T05:11:41.276Z,23.2
2022-10-02T05:17:18.726Z,23.2
2022-10-02T05:22:41.054Z,23.2
2022-10-02T05:28:22.090Z,23.2
2022-10-02T05:33:27.564Z,23.2
2022-10-02T05:38:38.789Z,23.2
2022-10-02T05:43:32.656Z,23.2
2022-10-02T05:48:38.923Z,23.2
2022-10-02T05:53:45.709Z,23.2
2022-10-02T05:59:08.786Z,23.2
2022-10-02T06:04:34.248Z,23.2
2022-10-02T06:09:25.868Z,23.3
2022-10-02T06:14:50.629Z,23.3
2022-10-02T06:20:32.830Z,23.4
2022-10-02T06:25:55.464Z,30.4
2022-10-02T06:31:37.820Z,30.1
2022-10-02T06:36:44.866Z,31.3
2022-10-02T06:42:22.925Z,32.5
2022-10-02T06:47:28.596Z,33.6
2022-10-02T06:52:38.082Z,34.6
2022-10-02T06:57:45.766Z,35.7
2022-10-02T07:02:52.186Z,36.8
2022-10-02T07:08:14.913Z,37.8
2022-10-02T07:13:37.605Z,39
2022-10-02T07:19:17.657Z,40.1
2022-10-02T07:25:08.171Z,41.1
2022-10-02T07:30:30.728Z,42.1
2022-10-02T07:35:59.274Z,42.9
2022-10-02T07:41:37.255Z,43.8
2022-10-02T07:47:16.154Z,44.7
2022-10-02T07:52:59.325Z,45.5
2022-10-02T07:58:36.928Z,46.1
2022-10-02T08:04:14.861Z,47
2022-10-02T08:09:58.116Z,47.9
2022-10-02T08:15:35.231Z,48.7
2022-10-02T08:21:24.873Z,49.5
2022-10-02T08:27:07.241Z,50.1
2022-10-02T08:32:50.417Z,49.9
2022-10-02T08:38:27.935Z,50.3
2022-10-02T08:43:48.771Z,51.4
2022-10-02T08:49:26.759Z,52.1
2022-10-02T08:55:04.885Z,52.8
2022-10-02T09:00:30.154Z,53.4
2022-10-02T09:05:40.794Z,54
2022-10-02T09:10:38.142Z,54.6
2022-10-02T09:16:04.641Z,55.1
2022-10-02T09:21:28.069Z,55.8
2022-10-02T09:26:35.654Z,56.3
2022-10-02T09:31:57.793Z,56.9
2022-10-02T09:37:34.976Z,57.4
2022-10-02T09:43:12.439Z,58
2022-10-02T09:48:50.297Z,58.5
2022-10-02T09:54:27.451Z,58.7
2022-10-02T10:00:05.196Z,54.3
2022-10-02T10:06:12.076Z,51.1
2022-10-02T10:11:50.197Z,52.1
2022-10-02T10:17:28.450Z,52.2
2022-10-02T10:23:08.961Z,54.2
2022-10-02T10:28:47.270Z,56
2022-10-02T10:34:25.441Z,56.8
2022-10-02T10:39:51.882Z,57.9
2022-10-02T10:45:36.082Z,58.7
2022-10-02T10:52:46.460Z,59.4
2022-10-02T10:58:27.241Z,60.1
2022-10-02T11:03:54.791Z,60.7
2022-10-02T11:09:16.763Z,61.1
2022-10-02T11:14:39.152Z,61.7
2022-10-02T11:20:01.210Z,62.1
2022-10-02T11:25:29.002Z,62.5
2022-10-02T11:31:05.474Z,62.9
2022-10-02T11:36:43.818Z,63.2
2022-10-02T11:42:21.113Z,63.4
2022-10-02T11:47:59.146Z,63.7
2022-10-02T11:53:37.994Z,63.9
2022-10-02T11:59:16.041Z,64.2
2022-10-02T12:04:54.601Z,64.3
2022-10-02T12:10:31.712Z,64.5
2022-10-02T12:16:10.317Z,64.6
2022-10-02T12:21:32.595Z,64.7
2022-10-02T12:27:09.958Z,64.8
2022-10-02T12:32:47.673Z,64.8
2022-10-02T12:38:27.560Z,64.9
2022-10-02T12:44:09.734Z,64.9
2022-10-02T12:49:31.922Z,64.8
2022-10-02T12:55:09.269Z,64.8
2022-10-02T13:00:46.121Z,64.7
2022-10-02T13:06:53.001Z,64.5
2022-10-02T13:12:16.669Z,64.2
2022-10-02T13:17:59.022Z,63.5
2022-10-02T13:23:39.830Z,63
2022-10-02T13:29:20.909Z,62.1
2022-10-02T13:34:59.767Z,61.2
2022-10-02T13:40:37.913Z,55.2
2022-10-02T13:46:15.698Z,57.2
2022-10-02T13:51:56.827Z,59.2
2022-10-02T13:57:38.176Z,58.5
2022-10-02T14:03:16.812Z,58
2022-10-02T14:08:54.274Z,57.7
2022-10-02T14:14:36.435Z,57.1
2022-10-02T14:20:13.784Z,56.1
2022-10-02T14:25:50.920Z,55.6
2022-10-02T14:31:28.383Z,51.1
2022-10-02T14:37:07.549Z,48.3
2022-10-02T14:42:44.988Z,46.4
2022-10-02T14:48:22.985Z,45.1
2022-10-02T14:54:00.546Z,44.3
2022-10-02T15:22:18.736Z,41.6
2022-10-02T15:28:04.459Z,41.3
2022-10-02T15:34:00.863Z,40.6
2022-10-02T15:39:38.634Z,40.3
2022-10-02T15:45:19.675Z,40
2022-10-02T15:50:56.941Z,39.8
2022-10-02T15:56:38.982Z,39.2
2022-10-02T16:02:18.117Z,38.7
2022-10-02T16:07:54.917Z,38.3
2022-10-02T16:13:32.632Z,38.1
2022-10-02T16:19:11.693Z,37.9
2022-10-02T16:26:06.667Z,37.7
2022-10-02T16:31:29.756Z,37.4
2022-10-02T16:36:52.572Z,37.1
2022-10-02T16:42:31.758Z,36.7
2022-10-02T16:47:54.684Z,35.9
2022-10-02T16:53:33.279Z,35.4
2022-10-02T16:59:13.439Z,35.2
2022-10-02T17:05:20.031Z,35.1
2022-10-02T17:10:42.495Z,34.9
2022-10-02T17:16:21.351Z,34.8
2022-10-02T17:21:59.481Z,34.8
2022-10-02T17:27:37.457Z,34.7
2022-10-02T17:33:24.152Z,34.6
2022-10-02T17:39:01.838Z,34.6
2022-10-02T17:44:43.116Z,34.5
2022-10-02T17:50:22.564Z,34.5
2022-10-02T17:56:34.115Z,34.4
2022-10-02T18:02:16.857Z,32.3
2022-10-02T18:07:38.581Z,29.7
2022-10-02T18:13:18.167Z,28.6
2022-10-02T18:23:52.664Z,27.4
2022-10-02T18:29:15.402Z,26.9
2022-10-02T18:35:02.877Z,26.6
2022-10-02T18:40:40.275Z,26.4
2022-10-02T18:46:17.460Z,26.2
2022-10-02T18:51:42.966Z,26
2022-10-02T18:57:25.405Z,25.9
2022-10-02T19:02:48.737Z,25.8
2022-10-02T19:08:27.193Z,25.6
2022-10-02T19:14:07.826Z,25.6
2022-10-02T19:19:45.703Z,25.5
2022-10-02T19:25:08.550Z,25.4
2022-10-02T19:30:46.265Z,25.4
2022-10-02T19:36:08.131Z,25.3
2022-10-02T19:41:52.648Z,25.3
2022-10-02T19:47:35.509Z,25.3
2022-10-02T19:53:13.202Z,25.2
2022-10-02T19:58:40.713Z,25.1
2022-10-02T20:04:19.425Z,25.1
2022-10-02T20:09:30.349Z,25.1
2022-10-02T20:15:11.181Z,25
2022-10-02T20:20:48.342Z,24.9
2022-10-02T20:26:25.729Z,24.9
2022-10-02T20:32:04.156Z,24.9
